Time;durP1;ratioP1;P1;durP2;ratioP2;P2;SDS_P1;SDS_P2;PMS_P1;PMS_P2;Temp;Humidity;BMP_temperature;BMP_pressure;BME280_temperature;BME280_humidity;BME280_pressure;Samples;Min_cycle;Max_cycle;Signal;HPM_P1;HPM_P2
2022/03/18 00:02:12;;;;;;;76.90;46.65;;;128.20;2252.80;;;;;;4973110;28;20053;-56
2022/03/18 00:04:38;;;;;;;83.50;49.00;;;128.30;2252.80;;;;;;4973135;28;20027;-57
2022/03/18 00:07:04;;;;;;;84.57;48.15;;;128.30;2252.80;;;;;;4973087;28;20035;-57
2022/03/18 00:09:30;;;;;;;78.05;46.03;;;128.20;2252.80;;;;;;4973388;28;20466;-56
2022/03/18 00:11:57;;;;;;;73.35;41.80;;;128.20;2252.80;;;;;;4973102;28;20436;-57
2022/03/18 00:14:23;;;;;;;61.83;38.22;;;128.10;2252.80;;;;;;4973231;28;20058;-56
2022/03/18 00:16:48;;;;;;;65.68;34.60;;;128.10;2252.80;;;;;;4972862;28;20473;-56
2022/03/18 00:19:15;;;;;;;54.85;35.03;;;103.30;2227.20;;;;;;4973118;28;20075;-57
2022/03/18 00:21:41;;;;;;;56.95;36.67;;;103.30;2227.20;;;;;;4973009;28;20069;-56
2022/03/18 00:24:07;;;;;;;53.28;32.17;;;103.30;2227.20;;;;;;4972744;28;20054;-56
2022/03/18 00:26:33;;;;;;;55.13;35.97;;;128.00;2252.80;;;;;;4973077;28;20026;-56
2022/03/18 00:28:59;;;;;;;65.70;37.78;;;103.30;2227.20;;;;;;4972858;28;20358;-56
2022/03/18 00:31:24;;;;;;;68.40;41.75;;;103.10;2227.20;;;;;;4972600;28;20085;-57
2022/03/18 00:33:50;;;;;;;59.65;36.35;;;103.10;2227.20;;;;;;4972764;28;20462;-56
2022/03/18 00:36:16;;;;;;;56.58;36.20;;;103.00;2227.20;;;;;;4972574;28;20031;-57
2022/03/18 00:38:42;;;;;;;78.10;39.33;;;103.00;2227.20;;;;;;4972771;28;20480;-56
2022/03/18 00:41:08;;;;;;;56.78;34.88;;;103.00;2227.20;;;;;;4972034;28;20047;-57
2022/03/18 00:43:34;;;;;;;58.13;33.63;;;102.90;2227.20;;;;;;4972225;28;20058;-57
2022/03/18 00:46:00;;;;;;;60.47;36.35;;;102.80;2227.20;;;;;;4972555;28;20455;-57
2022/03/18 00:53:54;;;;;;;60.53;34.95;;;102.90;2227.20;;;;;;4972260;28;20469;-56
2022/03/18 00:56:20;;;;;;;61.90;37.13;;;102.90;2227.20;;;;;;4972505;28;20055;-56
2022/03/18 00:58:46;;;;;;;62.15;39.38;;;102.90;2227.20;;;;;;4972127;28;20487;-56
2022/03/18 01:01:12;;;;;;;71.70;39.47;;;102.70;2227.20;;;;;;4971913;28;20047;-55
2022/03/18 01:03:38;;;;;;;76.28;42.95;;;102.80;2227.20;;;;;;4971905;28;20035;-56
2022/03/18 01:06:04;;;;;;;86.18;48.25;;;102.90;2227.20;;;;;;4972195;28;20034;-56
2022/03/18 01:08:30;;;;;;;107.68;57.78;;;102.80;2227.20;;;;;;4972249;28;20027;-56
2022/03/18 01:10:56;;;;;;;94.35;48.50;;;102.80;2227.20;;;;;;4971911;28;20033;-57
2022/03/18 01:13:23;;;;;;;74.25;42.15;;;102.60;2227.20;;;;;;4972213;28;20030;-56
2022/03/18 01:15:49;;;;;;;65.57;35.22;;;102.60;2227.20;;;;;;4971916;28;20524;-56
2022/03/18 01:18:15;;;;;;;50.63;28.58;;;102.50;2227.20;;;;;;4971689;28;20034;-57
2022/03/18 01:20:41;;;;;;;37.72;24.08;;;102.50;2227.20;;;;;;4971818;28;20568;-57
2022/03/18 01:23:07;;;;;;;45.70;27.70;;;102.40;2227.20;;;;;;4971689;28;20066;-56
2022/03/18 01:25:34;;;;;;;67.40;37.72;;;102.60;2227.20;;;;;;4971936;28;20134;-57
2022/03/18 01:28:01;;;;;;;52.28;35.38;;;102.70;2227.20;;;;;;4971832;28;20030;-56
2022/03/18 01:30:29;;;;;;;101.53;59.00;;;102.60;2227.20;;;;;;4971580;28;20058;-55
2022/03/18 01:32:55;;;;;;;87.65;50.83;;;102.70;2227.20;;;;;;4971550;28;20065;-57
2022/03/18 01:35:21;;;;;;;75.30;45.67;;;102.70;2227.20;;;;;;4971725;28;20027;-56
2022/03/18 01:37:46;;;;;;;83.03;47.05;;;102.60;2227.20;;;;;;4971640;28;20033;-57
2022/03/18 01:40:13;;;;;;;68.95;38.40;;;102.50;2227.20;;;;;;4971830;28;20061;-56
2022/03/18 01:42:40;;;;;;;55.25;32.13;;;102.60;2227.20;;;;;;4971420;28;20038;-56
2022/03/18 01:45:06;;;;;;;57.05;26.70;;;102.60;2227.20;;;;;;4971516;28;20023;-57
2022/03/18 01:47:32;;;;;;;78.80;45.25;;;102.70;2227.20;;;;;;4971635;28;20035;-57
2022/03/18 01:49:58;;;;;;;89.97;50.63;;;102.60;2227.20;;;;;;4971193;28;20069;-56
2022/03/18 01:52:24;;;;;;;99.20;59.70;;;102.50;2227.20;;;;;;4971723;28;20380;-56
2022/03/18 01:54:51;;;;;;;96.00;67.25;;;102.60;2227.20;;;;;;4971472;28;20434;-57
2022/03/18 01:57:22;;;;;;;66.72;39.05;;;102.60;2227.20;;;;;;4971113;28;20031;-57
2022/03/18 01:59:49;;;;;;;49.80;30.33;;;102.60;2227.20;;;;;;4971217;28;20023;-57
2022/03/18 02:02:16;;;;;;;59.55;35.38;;;102.50;2227.20;;;;;;4970747;28;20094;-55
2022/03/18 02:04:43;;;;;;;44.13;26.42;;;102.60;2227.20;;;;;;4971380;28;20473;-54
2022/03/18 02:07:09;;;;;;;53.42;30.10;;;102.40;2227.20;;;;;;4971470;28;20039;-54
2022/03/18 02:09:36;;;;;;;51.30;34.17;;;102.50;2227.20;;;;;;4971130;28;20074;-57
2022/03/18 02:12:03;;;;;;;76.07;43.15;;;102.40;2227.20;;;;;;4971480;28;20026;-54
2022/03/18 02:14:36;;;;;;;119.93;63.22;;;102.40;2227.20;;;;;;4970955;28;20470;-54
2022/03/18 02:17:04;;;;;;;121.40;68.07;;;77.70;2227.20;;;;;;4971252;28;20054;-54
2022/03/18 02:19:30;;;;;;;88.70;51.35;;;77.60;2227.20;;;;;;4971173;28;20043;-54
2022/03/18 02:21:57;;;;;;;92.75;52.53;;;77.60;2227.20;;;;;;4970912;28;20449;-54
2022/03/18 02:24:23;;;;;;;101.30;54.88;;;77.60;2227.20;;;;;;4971295;28;20466;-54
2022/03/18 02:26:50;;;;;;;100.57;55.95;;;77.60;2227.20;;;;;;4970848;28;20465;-54
2022/03/18 02:29:20;;;;;;;78.63;49.50;;;77.60;2227.20;;;;;;4971036;28;20050;-54
2022/03/18 02:31:46;;;;;;;115.93;70.47;;;77.60;2227.20;;;;;;4970769;28;20074;-55
2022/03/18 02:34:12;;;;;;;122.93;67.55;;;77.60;2227.20;;;;;;4970992;28;20152;-55
2022/03/18 02:36:38;;;;;;;126.40;73.22;;;77.30;2227.20;;;;;;4970890;28;20035;-55
2022/03/18 02:39:05;;;;;;;134.23;72.78;;;77.30;2227.20;;;;;;4971317;28;20053;-55
2022/03/18 02:41:32;;;;;;;82.00;47.40;;;77.20;2227.20;;;;;;4971053;28;20042;-54
2022/03/18 02:43:58;;;;;;;75.05;43.78;;;77.00;2227.20;;;;;;4970821;28;20062;-55
2022/03/18 02:46:25;;;;;;;78.93;46.20;;;77.00;2227.20;;;;;;4970957;28;20050;-54
2022/03/18 02:48:50;;;;;;;68.20;40.13;;;77.10;2227.20;;;;;;4970980;28;20027;-55
2022/03/18 02:51:16;;;;;;;64.25;40.15;;;77.00;2227.20;;;;;;4951442;29;20501;-55
2022/03/18 02:53:42;;;;;;;74.60;46.03;;;77.00;2227.20;;;;;;4951872;29;20059;-55
2022/03/18 02:56:08;;;;;;;71.10;41.20;;;77.20;2227.20;;;;;;4951541;29;20059;-55
2022/03/18 02:58:35;;;;;;;67.25;40.40;;;77.20;2227.20;;;;;;4951626;29;20418;-55
2022/03/18 03:01:02;;;;;;;68.15;42.17;;;77.10;2227.20;;;;;;4951423;29;20066;-55
2022/03/18 03:03:29;;;;;;;68.90;41.75;;;77.10;2227.20;;;;;;4951158;29;20058;-55
2022/03/18 03:08:39;;;;;;;74.00;45.78;;;77.10;2227.20;;;;;;4955240;29;20093;-54
2022/03/18 03:11:06;;;;;;;66.18;40.13;;;77.10;2227.20;;;;;;4954832;29;20035;-55
2022/03/18 03:13:32;;;;;;;57.70;37.95;;;77.10;2227.20;;;;;;4955124;29;20027;-55
2022/03/18 03:15:59;;;;;;;64.53;38.97;;;77.20;2227.20;;;;;;4954794;29;20098;-55
2022/03/18 03:18:25;;;;;;;96.38;54.85;;;77.20;2227.20;;;;;;4954790;29;20118;-55
2022/03/18 03:20:51;;;;;;;85.50;53.15;;;77.20;2227.20;;;;;;4954952;29;20079;-55
2022/03/18 03:23:18;;;;;;;76.97;45.38;;;77.10;2227.20;;;;;;4954694;29;20031;-55
2022/03/18 03:25:44;;;;;;;62.20;36.85;;;77.10;2227.20;;;;;;4954673;29;20035;-56
2022/03/18 03:28:09;;;;;;;60.15;33.33;;;77.10;2227.20;;;;;;4954656;29;20033;-54
2022/03/18 03:30:35;;;;;;;55.00;34.33;;;76.90;2227.20;;;;;;4954372;29;20023;-55
2022/03/18 03:33:01;;;;;;;61.88;38.63;;;76.80;2227.20;;;;;;4954606;29;20114;-55
2022/03/18 03:35:28;;;;;;;53.90;32.85;;;76.90;2227.20;;;;;;4954404;29;20062;-55
2022/03/18 03:37:54;;;;;;;55.78;31.52;;;76.90;2227.20;;;;;;4954589;29;20035;-55
2022/03/18 03:40:20;;;;;;;66.13;35.95;;;77.00;2227.20;;;;;;4954288;29;20042;-55
2022/03/18 03:42:45;;;;;;;64.70;38.65;;;52.10;2227.20;;;;;;4954234;29;20039;-56
2022/03/18 03:45:13;;;;;;;63.13;35.03;;;52.10;2227.20;;;;;;4954519;29;20106;-55
2022/03/18 03:47:40;;;;;;;58.28;33.45;;;52.10;2227.20;;;;;;4954220;29;20034;-55
2022/03/18 03:50:07;;;;;;;56.83;33.72;;;52.00;2227.20;;;;;;4954097;29;20035;-55
2022/03/18 03:52:34;;;;;;;60.08;35.78;;;52.10;2227.20;;;;;;4954185;29;20027;-55
2022/03/18 03:55:01;;;;;;;60.10;35.85;;;52.10;2227.20;;;;;;4954301;29;20447;-55
2022/03/18 03:57:27;;;;;;;57.53;34.72;;;52.10;2227.20;;;;;;4954118;29;20039;-55
2022/03/18 03:59:52;;;;;;;60.50;36.78;;;52.10;2227.20;;;;;;4937243;29;20444;-55
2022/03/18 04:02:20;;;;;;;66.53;38.70;;;76.80;2227.20;;;;;;4953504;29;20066;-55
2022/03/18 04:04:47;;;;;;;66.32;39.65;;;76.80;2227.20;;;;;;4953859;29;20050;-55
2022/03/18 04:07:12;;;;;;;159.77;105.80;;;76.80;2227.20;;;;;;4954036;29;20031;-55
2022/03/18 04:09:38;;;;;;;78.90;48.15;;;52.10;2227.20;;;;;;4953792;29;20031;-55
2022/03/18 04:12:04;;;;;;;83.47;48.78;;;52.10;2227.20;;;;;;4953994;29;20102;-55
2022/03/18 04:14:30;;;;;;;70.38;44.17;;;52.10;2227.20;;;;;;4953823;29;20477;-54
2022/03/18 04:16:56;;;;;;;74.78;46.72;;;76.80;2227.20;;;;;;4952520;28;20023;-55
2022/03/18 04:19:21;;;;;;;78.05;45.45;;;52.10;2227.20;;;;;;4953768;29;20023;-55
2022/03/18 04:21:47;;;;;;;72.97;41.92;;;52.00;2227.20;;;;;;4953408;29;20035;-55
2022/03/18 04:24:13;;;;;;;84.88;48.30;;;52.00;2227.20;;;;;;4953878;29;20048;-55
2022/03/18 04:26:38;;;;;;;73.85;43.25;;;51.90;2227.20;;;;;;4953571;29;20470;-55
2022/03/18 04:29:04;;;;;;;70.53;45.38;;;51.90;2227.20;;;;;;4953483;29;20023;-55
2022/03/18 04:31:30;;;;;;;70.03;42.22;;;51.80;2227.20;;;;;;4953455;29;20393;-55
2022/03/18 04:33:56;;;;;;;57.08;38.90;;;51.70;2227.20;;;;;;4953245;29;20394;-55
2022/03/18 04:36:21;;;;;;;57.80;37.22;;;51.70;2227.20;;;;;;4953397;29;20110;-55
2022/03/18 04:38:47;;;;;;;70.05;38.67;;;51.70;2227.20;;;;;;4953275;29;20027;-55
2022/03/18 04:41:13;;;;;;;65.00;41.00;;;51.50;2227.20;;;;;;4952630;29;20042;-55
2022/03/18 04:43:38;;;;;;;62.00;36.05;;;51.50;2227.20;;;;;;4951503;29;20077;-55
2022/03/18 04:46:04;;;;;;;70.93;44.38;;;51.50;2227.20;;;;;;4951999;29;20382;-55
2022/03/18 04:48:30;;;;;;;119.97;57.92;;;51.60;2227.20;;;;;;4952551;29;20031;-55
2022/03/18 04:50:57;;;;;;;77.05;42.83;;;51.60;2227.20;;;;;;4953005;29;20038;-55
2022/03/18 04:53:22;;;;;;;69.03;40.55;;;51.50;2227.20;;;;;;4953402;29;20035;-54
2022/03/18 04:55:48;;;;;;;64.32;38.00;;;51.70;2227.20;;;;;;4953081;29;20026;-55
2022/03/18 04:58:14;;;;;;;68.75;47.85;;;51.80;2227.20;;;;;;4952912;29;20485;-55
2022/03/18 05:00:40;;;;;;;70.65;41.83;;;51.70;2227.20;;;;;;4952952;29;20430;-55
2022/03/18 05:03:06;;;;;;;67.05;42.38;;;51.90;2227.20;;;;;;4952444;29;20055;-55
2022/03/18 05:05:32;;;;;;;58.00;34.40;;;51.90;2227.20;;;;;;4952932;29;20033;-55
2022/03/18 05:07:57;;;;;;;54.97;33.45;;;52.00;2227.20;;;;;;4952918;29;20385;-55
2022/03/18 05:10:24;;;;;;;64.22;36.10;;;52.10;2227.20;;;;;;4952879;29;20024;-55
2022/03/18 05:12:50;;;;;;;77.97;45.85;;;52.10;2227.20;;;;;;4952993;29;20031;-55
2022/03/18 05:15:16;;;;;;;98.22;55.88;;;52.10;2227.20;;;;;;4952479;29;20470;-55
2022/03/18 05:17:50;;;;;;;81.65;48.45;;;76.90;2227.20;;;;;;4952894;29;20536;-55
2022/03/18 05:20:15;;;;;;;;;;;77.10;2227.20;;;;;;4935276;29;20490;-55
2022/03/18 05:22:41;;;;;;;85.63;51.85;;;77.20;2227.20;;;;;;4952608;29;19972;-54
2022/03/18 05:25:07;;;;;;;154.68;87.40;;;77.20;2227.20;;;;;;4952679;29;20023;-55
2022/03/18 05:27:32;;;;;;;152.38;82.50;;;77.40;2227.20;;;;;;4952713;28;20393;-55
2022/03/18 05:29:58;;;;;;;83.18;49.13;;;77.50;2227.20;;;;;;4952293;29;20074;-55
2022/03/18 05:32:24;;;;;;;85.68;48.58;;;77.70;2227.20;;;;;;4952255;29;20027;-55
2022/03/18 05:34:49;;;;;;;86.40;45.92;;;102.40;2227.20;;;;;;4952315;29;20371;-55
2022/03/18 05:37:15;;;;;;;74.43;46.65;;;102.60;2227.20;;;;;;4952391;29;20081;-55
2022/03/18 05:39:41;;;;;;;74.30;42.78;;;102.80;2227.20;;;;;;4952623;29;20050;-55
2022/03/18 05:42:07;;;;;;;66.35;41.10;;;102.80;2227.20;;;;;;4952104;29;20043;-55
2022/03/18 05:44:33;;;;;;;66.18;38.38;;;102.90;2227.20;;;;;;4952365;29;20031;-55
2022/03/18 05:46:59;;;;;;;61.45;35.88;;;103.10;2227.20;;;;;;4952147;29;20485;-55
2022/03/18 05:49:24;;;;;;;54.90;33.50;;;103.20;2227.20;;;;;;4951917;29;20459;-55
2022/03/18 05:51:50;;;;;;;54.75;32.65;;;103.30;2227.20;;;;;;4952232;29;20082;-54
2022/03/18 05:54:16;;;;;;;56.65;32.53;;;103.30;2227.20;;;;;;4951681;29;20035;-55
2022/03/18 05:56:54;;;;;;;56.03;34.00;;;128.10;2252.80;;;;;;4952308;29;20066;-54
2022/03/18 05:59:24;;;;;;;60.50;37.70;;;128.40;2252.80;;;;;;4952124;29;20554;-55
2022/03/18 06:01:50;;;;;;;63.55;39.80;;;128.50;2252.80;;;;;;4951849;29;20542;-55
2022/03/18 06:04:16;;;;;;;72.70;42.45;;;128.70;2252.80;;;;;;4951892;29;20035;-55
2022/03/18 06:06:43;;;;;;;81.20;45.85;;;128.80;2252.80;;;;;;4952155;29;20020;-55
2022/03/18 06:11:55;;;;;;;98.93;53.67;;;153.90;2252.80;;;;;;4951725;29;20079;-56
2022/03/18 06:14:25;;;;;;;65.97;41.38;;;154.30;2252.80;;;;;;4952087;29;20031;-54
2022/03/18 06:16:59;;;;;;;103.45;81.22;;;179.40;2252.80;;;;;;4952032;29;20027;-54
2022/03/18 06:19:26;;;;;;;55.08;35.05;;;179.40;2252.80;;;;;;4934532;29;20051;-55
2022/03/18 06:21:52;;;;;;;54.05;36.80;;;179.50;2252.80;;;;;;4951945;29;20035;-54
2022/03/18 06:24:18;;;;;;;58.22;39.05;;;179.90;2252.80;;;;;;4951769;29;20098;-55
2022/03/18 06:26:44;;;;;;;64.85;41.65;;;205.30;2252.80;;;;;;4951989;29;21062;-55
2022/03/18 06:29:11;;;;;;;80.68;55.17;;;205.60;2252.80;;;;;;4951892;29;20034;-55
2022/03/18 06:31:39;;;;;;;104.95;82.45;;;205.70;2252.80;;;;;;4951644;29;20059;-55
2022/03/18 06:34:05;;;;;;;110.43;81.05;;;230.60;2201.60;;;;;;4951801;29;20036;-55
2022/03/18 06:36:31;;;;;;;107.82;73.95;;;205.70;2252.80;;;;;;4951869;29;20470;-55
2022/03/18 06:38:57;;;;;;;111.85;83.07;;;230.90;2176.00;;;;;;4951689;28;20035;-55
2022/03/18 06:41:23;;;;;;;107.82;75.55;;;230.40;2227.20;;;;;;4954754;29;20437;-55
2022/03/18 06:43:52;;;;;;;90.03;66.82;;;205.60;2252.80;;;;;;4955286;29;20024;-55
2022/03/18 06:46:18;;;;;;;93.43;74.28;;;256.50;2048.00;;;;;;4955235;29;20035;-55
2022/03/18 06:48:44;;;;;;;114.18;82.15;;;281.80;1971.20;;;;;;4955548;29;20359;-55
2022/03/18 06:51:10;;;;;;;109.88;82.05;;;256.70;1971.20;;;;;;4955506;29;20082;-55
2022/03/18 06:53:36;;;;;;;109.70;79.35;;;281.60;1971.20;;;;;;4955266;29;20023;-55
2022/03/18 06:56:04;;;;;;;104.90;75.32;;;281.70;1971.20;;;;;;4955354;29;20054;-55
2022/03/18 06:58:30;;;;;;;105.53;79.75;;;281.80;1971.20;;;;;;4955306;29;20435;-55
2022/03/18 07:00:56;;;;;;;100.70;72.55;;;282.00;1920.00;;;;;;4954778;29;20058;-55
2022/03/18 07:03:22;;;;;;;86.03;58.83;;;281.80;1894.40;;;;;;4954939;29;20406;-55
2022/03/18 07:05:48;;;;;;;65.30;50.97;;;256.50;1945.60;;;;;;4954896;29;20050;-55
2022/03/18 07:08:14;;;;;;;52.60;37.25;;;282.50;1868.80;;;;;;4955212;29;20033;-55
2022/03/18 07:10:40;;;;;;;54.65;39.58;;;282.40;1843.20;;;;;;4955087;29;20462;-55
2022/03/18 07:13:05;;;;;;;64.82;44.75;;;282.10;1843.20;;;;;;4954829;29;20019;-56
2022/03/18 07:15:31;;;;;;;67.97;51.80;;;307.20;1817.60;;;;;;4954836;29;20385;-55
2022/03/18 07:18:00;;;;;;;66.45;44.97;;;307.60;1817.60;;;;;;4954606;29;20541;-55
2022/03/18 07:20:26;;;;;;;62.75;43.90;;;333.30;1740.80;;;;;;4954553;29;20033;-55
2022/03/18 07:23:12;;;;;;;64.60;46.80;;;333.30;1715.20;;;;;;4954723;29;20028;-55
2022/03/18 07:25:39;;;;;;;102.55;68.88;;;308.10;1715.20;;;;;;4954536;29;20042;-55
2022/03/18 07:28:07;;;;;;;78.30;51.47;;;333.20;1715.20;;;;;;4954434;29;20033;-55
2022/03/18 07:30:33;;;;;;;71.43;52.83;;;307.80;1766.40;;;;;;4954742;29;20086;-55
2022/03/18 07:32:59;;;;;;;78.93;54.55;;;307.50;1766.40;;;;;;4954320;29;20031;-55
2022/03/18 07:35:25;;;;;;;92.80;70.65;;;307.50;1792.00;;;;;;4954369;29;20024;-56
2022/03/18 07:37:51;;;;;;;90.72;70.30;;;332.90;1740.80;;;;;;4954439;29;20037;-55
2022/03/18 07:40:18;;;;;;;57.17;41.95;;;333.20;1740.80;;;;;;4954258;29;20413;-55
2022/03/18 07:42:47;;;;;;;53.53;41.22;;;307.40;1792.00;;;;;;4954269;29;20082;-56
2022/03/18 07:45:26;;;;;;;60.83;42.35;;;281.80;1843.20;;;;;;4954471;29;20019;-55
2022/03/18 07:47:52;;;;;;;73.38;46.97;;;307.80;1792.00;;;;;;4954196;29;20023;-55
2022/03/18 07:50:22;;;;;;;56.25;42.28;;;333.20;1740.80;;;;;;4954126;29;20561;-56
2022/03/18 07:52:50;;;;;;;55.00;37.47;;;333.50;1715.20;;;;;;4953986;29;20121;-56
2022/03/18 07:55:20;;;;;;;53.10;38.08;;;333.50;1689.60;;;;;;4954005;29;20426;-56
2022/03/18 07:57:46;;;;;;;52.08;39.40;;;333.60;1689.60;;;;;;4954157;29;20045;-56
2022/03/18 08:00:13;;;;;;;68.00;49.05;;;358.50;1664.00;;;;;;4954396;29;20106;-55
2022/03/18 08:02:43;;;;;;;48.50;41.03;;;333.50;1689.60;;;;;;4953563;29;20047;-55
2022/03/18 08:05:11;;;;;;;52.47;44.33;;;333.60;1689.60;;;;;;4953957;29;20106;-55
2022/03/18 08:07:38;;;;;;;44.13;33.80;;;333.70;1689.60;;;;;;4953755;29;20027;-55
2022/03/18 08:10:05;;;;;;;48.72;34.38;;;307.50;1766.40;;;;;;4953878;29;20470;-55
2022/03/18 08:12:32;;;;;;;52.13;42.72;;;358.40;1689.60;;;;;;4953822;29;20374;-55
2022/03/18 08:14:59;;;;;;;56.33;40.47;;;358.90;1638.40;;;;;;4952522;29;20465;-56
2022/03/18 08:17:26;;;;;;;63.92;49.30;;;358.70;1587.20;;;;;;4953621;29;20070;-56
2022/03/18 08:19:52;;;;;;;61.10;43.53;;;384.40;1561.60;;;;;;4952856;29;20071;-55
2022/03/18 08:22:21;;;;;;;55.63;43.97;;;410.50;1510.40;;;;;;4952583;29;20062;-55
2022/03/18 08:24:49;;;;;;;67.38;46.83;;;435.60;1433.60;;;;;;4953385;29;20042;-55
2022/03/18 08:27:15;;;;;;;52.67;41.83;;;435.50;1408.00;;;;;;4953459;29;20027;-55
2022/03/18 08:29:41;;;;;;;56.45;40.17;;;461.10;1408.00;;;;;;4953656;29;20027;-55
2022/03/18 08:32:11;;;;;;;45.40;33.95;;;435.90;1459.20;;;;;;4953232;29;20042;-55
2022/03/18 08:34:37;;;;;;;54.13;39.97;;;384.90;1484.80;;;;;;4953003;29;20035;-55
2022/03/18 08:37:05;;;;;;;34.58;29.17;;;410.20;1459.20;;;;;;4953416;29;20082;-55
2022/03/18 08:39:38;;;;;;;77.38;68.97;;;384.20;1484.80;;;;;;4953341;29;20072;-55
2022/03/18 08:42:04;;;;;;;67.88;53.85;;;333.70;1587.20;;;;;;4953245;29;20125;-55
2022/03/18 08:44:30;;;;;;;30.95;25.45;;;358.60;1561.60;;;;;;4953398;29;20106;-55
2022/03/18 08:46:57;;;;;;;36.95;28.95;;;358.80;1536.00;;;;;;4953151;29;20448;-58
2022/03/18 08:49:23;;;;;;;35.00;25.15;;;358.80;1561.60;;;;;;4953195;29;20019;-51
2022/03/18 08:51:49;;;;;;;26.50;19.52;;;384.00;1536.00;;;;;;4952859;29;20027;-52
2022/03/18 08:54:15;;;;;;;24.70;19.00;;;333.40;1587.20;;;;;;4953030;29;20037;-53
2022/03/18 08:56:40;;;;;;;27.10;21.48;;;358.50;1587.20;;;;;;4953336;29;20490;-52
2022/03/18 08:59:06;;;;;;;37.50;25.75;;;359.20;1510.40;;;;;;4952836;29;20386;-52
2022/03/18 09:01:36;;;;;;;34.55;19.52;;;384.10;1484.80;;;;;;4952717;29;20065;-51
2022/03/18 09:04:02;;;;;;;31.80;21.42;;;358.80;1484.80;;;;;;4952339;28;20070;-51
2022/03/18 09:06:27;;;;;;;28.20;18.63;;;384.00;1382.40;;;;;;4952729;29;20059;-52
2022/03/18 09:08:56;;;;;;;30.15;21.17;;;333.20;1433.60;;;;;;4952818;29;20027;-58
2022/03/18 09:11:22;;;;;;;43.90;29.48;;;333.40;1459.20;;;;;;4952940;29;20374;-52
2022/03/18 09:13:48;;;;;;;34.97;21.70;;;333.40;1433.60;;;;;;4952563;29;20106;-52
2022/03/18 09:16:14;;;;;;;31.08;20.77;;;332.90;1459.20;;;;;;4952457;29;20081;-52
2022/03/18 09:18:40;;;;;;;23.85;15.73;;;333.20;1484.80;;;;;;4952792;29;20035;-52
2022/03/18 09:21:07;;;;;;;25.70;16.08;;;333.20;1459.20;;;;;;4952468;29;20042;-53
2022/03/18 09:23:33;;;;;;;21.35;15.10;;;333.30;1459.20;;;;;;4952814;29;20042;-56
2022/03/18 09:25:58;;;;;;;25.90;19.60;;;307.90;1484.80;;;;;;4952455;29;20027;-60
2022/03/18 09:28:24;;;;;;;31.80;21.52;;;333.10;1510.40;;;;;;4952676;29;20532;-53
2022/03/18 09:30:51;;;;;;;25.15;17.80;;;307.90;1510.40;;;;;;4952567;29;20027;-56
2022/03/18 09:33:17;;;;;;;22.00;14.18;;;307.80;1484.80;;;;;;4952648;29;20386;-58
2022/03/18 09:35:46;;;;;;;27.98;18.58;;;307.60;1459.20;;;;;;4952650;29;20385;-53
2022/03/18 09:38:11;;;;;;;25.35;18.30;;;307.80;1484.80;;;;;;4952751;29;20034;-52
2022/03/18 09:40:40;;;;;;;65.47;42.60;;;307.70;1484.80;;;;;;4952362;29;20038;-53
2022/03/18 09:43:08;;;;;;;30.40;20.88;;;307.90;1484.80;;;;;;4952231;29;20035;-52
2022/03/18 09:45:38;;;;;;;23.25;15.45;;;308.10;1459.20;;;;;;4952438;29;20897;-53
2022/03/18 09:48:11;;;;;;;24.80;14.90;;;307.30;1484.80;;;;;;4952389;29;20037;-51
2022/03/18 09:50:39;;;;;;;34.55;20.70;;;307.20;1484.80;;;;;;4952226;29;20062;-51
2022/03/18 09:53:06;;;;;;;44.45;26.40;;;307.30;1484.80;;;;;;4952098;29;20502;-53
2022/03/18 09:55:34;;;;;;;21.08;15.68;;;307.80;1459.20;;;;;;4952386;29;20027;-51
2022/03/18 09:58:00;;;;;;;28.58;14.65;;;307.20;1536.00;;;;;;4952371;29;20027;-51
2022/03/18 10:00:26;;;;;;;23.95;16.48;;;307.30;1459.20;;;;;;4952020;29;20083;-51
2022/03/18 10:03:19;;;;;;;25.40;16.08;;;333.00;1433.60;;;;;;4934336;29;20055;-52
2022/03/18 10:05:54;;;;;;;22.75;16.15;;;307.60;1484.80;;;;;;4951967;29;20429;-53
2022/03/18 10:08:21;;;;;;;24.17;16.10;;;307.50;1459.20;;;;;;4952210;29;20115;-52
2022/03/18 10:10:48;;;;;;;24.60;16.20;;;307.30;1459.20;;;;;;4951924;29;20041;-52
2022/03/18 10:13:15;;;;;;;22.42;14.85;;;282.20;1459.20;;;;;;4952198;29;20032;-52
2022/03/18 10:15:41;;;;;;;23.05;15.57;;;282.00;1484.80;;;;;;4954336;28;20046;-51
2022/03/18 10:18:14;;;;;;;27.08;18.35;;;307.40;1612.80;;;;;;4955879;29;20034;-51
2022/03/18 10:20:42;;;;;;;28.70;16.92;;;307.60;1484.80;;;;;;4955156;29;20489;-58
2022/03/18 10:23:21;;;;;;;21.52;14.75;;;307.60;1484.80;;;;;;4953239;29;20561;-52
2022/03/18 10:25:55;;;;;;;28.40;16.85;;;307.80;1459.20;;;;;;4954267;29;20114;-54
2022/03/18 10:28:41;;;;;;;19.30;13.55;;;307.40;1510.40;;;;;;4954463;29;20035;-56
2022/03/18 10:31:18;;;;;;;16.48;12.02;;;;;;;;;;4954223;29;20027;-54
2022/03/18 10:39:28;;;;;;;24.05;15.98;;;308.00;1459.20;;;;;;4954493;29;20528;-51
2022/03/18 10:41:54;;;;;;;;;;;307.40;1459.20;;;;;;4954398;29;20076;-54
2022/03/18 10:44:20;;;;;;;22.40;16.40;;;282.30;1459.20;;;;;;4954164;29;19910;-53
2022/03/18 10:46:48;;;;;;;26.25;17.35;;;307.70;1484.80;;;;;;4953900;29;20031;-57
2022/03/18 10:49:14;;;;;;;31.30;21.10;;;308.10;1408.00;;;;;;4953717;29;20106;-53
2022/03/18 10:51:40;;;;;;;20.40;14.73;;;307.80;1433.60;;;;;;4953847;29;20027;-52
2022/03/18 10:54:06;;;;;;;28.67;17.15;;;307.60;1433.60;;;;;;4953756;29;20031;-52
2022/03/18 10:56:55;;;;;;;23.73;16.00;;;307.70;1433.60;;;;;;4954122;29;20045;-52
2022/03/18 10:59:22;;;;;;;21.83;15.07;;;308.10;1408.00;;;;;;4953971;29;20057;-54
2022/03/18 11:01:50;;;;;;;13.15;10.43;;;308.10;1408.00;;;;;;4952548;29;20055;-52
2022/03/18 11:04:16;;;;;;;21.15;13.40;;;308.10;1408.00;;;;;;4955572;29;20032;-54
2022/03/18 11:07:29;;;;;;;18.05;11.93;;;332.80;1408.00;;;;;;4955345;29;20027;-52
2022/03/18 11:12:27;;;;;;;19.55;13.05;;;307.60;1408.00;;;;;;4955398;29;20511;-52
2022/03/18 11:14:57;;;;;;;20.02;12.65;;;332.90;1408.00;;;;;;4955072;29;20094;-51
2022/03/18 11:17:23;;;;;;;20.90;15.82;;;333.00;1433.60;;;;;;4955266;29;20026;-55
2022/03/18 11:19:54;;;;;;;21.63;15.63;;;332.90;1433.60;;;;;;4954943;29;20110;-53
2022/03/18 11:22:22;;;;;;;25.73;16.40;;;333.20;1408.00;;;;;;4954681;29;20043;-51
2022/03/18 11:24:51;;;;;;;23.48;15.68;;;307.50;1433.60;;;;;;4954722;29;20019;-52
2022/03/18 11:27:17;;;;;;;15.48;11.32;;;332.90;1433.60;;;;;;4954253;28;20074;-52
2022/03/18 11:29:43;;;;;;;27.55;18.52;;;307.40;1408.00;;;;;;4937385;29;20461;-51
2022/03/18 11:32:16;;;;;;;21.88;13.77;;;307.50;1433.60;;;;;;4954602;29;20031;-51
2022/03/18 11:34:52;;;;;;;22.10;14.57;;;307.60;1408.00;;;;;;4954651;29;20378;-52
2022/03/18 11:37:19;;;;;;;16.23;12.40;;;307.50;1408.00;;;;;;4954526;29;20490;-52
2022/03/18 11:39:46;;;;;;;18.95;13.75;;;282.30;1408.00;;;;;;4954599;29;20466;-52
2022/03/18 11:42:20;;;;;;;23.08;17.00;;;307.60;1408.00;;;;;;4954633;29;20089;-52
2022/03/18 11:44:53;;;;;;;35.42;20.83;;;307.40;1433.60;;;;;;4954517;29;20035;-53
2022/03/18 11:47:32;;;;;;;59.47;33.22;;;307.90;1382.40;;;;;;4954240;29;20027;-53
2022/03/18 11:50:00;;;;;;;24.40;16.17;;;332.90;1382.40;;;;;;4953988;29;20023;-52
2022/03/18 11:52:26;;;;;;;24.58;14.45;;;332.80;1408.00;;;;;;4954121;29;20524;-53
2022/03/18 11:54:58;;;;;;;18.60;12.32;;;307.80;1382.40;;;;;;4954224;29;20035;-59
2022/03/18 11:57:32;;;;;;;33.65;24.95;;;307.60;1382.40;;;;;;4954246;29;20031;-54
2022/03/18 12:00:00;;;;;;;34.38;21.40;;;307.60;1408.00;;;;;;4953976;29;20039;-52
2022/03/18 12:02:38;;;;;;;23.88;15.20;;;307.90;1382.40;;;;;;4968155;28;20058;-52
2022/03/18 12:05:05;;;;;;;19.52;12.95;;;307.60;1382.40;;;;;;4954096;29;20489;-52
2022/03/18 12:07:47;;;;;;;23.80;17.35;;;307.80;1382.40;;;;;;4953964;29;20085;-51
2022/03/18 12:10:15;;;;;;;25.75;16.13;;;308.10;1408.00;;;;;;4954185;29;20117;-52
2022/03/18 12:12:46;;;;;;;24.55;15.95;;;332.80;1382.40;;;;;;4954113;29;20035;-52
2022/03/18 12:15:18;;;;;;;21.55;11.77;;;332.80;1382.40;;;;;;4954051;29;20079;-52
2022/03/18 12:17:56;;;;;;;19.30;13.52;;;308.00;1331.20;;;;;;4954048;29;20533;-52
2022/03/18 12:20:23;;;;;;;25.38;17.65;;;308.00;1356.80;;;;;;4953994;29;20054;-52
2022/03/18 12:22:51;;;;;;;24.98;14.68;;;308.00;1331.20;;;;;;4953630;29;20055;-51